Time;durP1;ratioP1;P1;durP2;ratioP2;P2;SDS_P1;SDS_P2;PMS_P1;PMS_P2;Temp;Humidity;BMP_temperature;BMP_pressure;BME280_temperature;BME280_humidity;BME280_pressure;Samples;Min_cycle;Max_cycle;Signal;HPM_P1;HPM_P2
2022/03/11 00:01:53;;;;;;;1.67;1.13;;;;;;;;;;5002694;28;20118;-78
2022/03/11 00:04:19;;;;;;;0.35;0.35;;;;;;;;;;5002312;28;20030;-76
2022/03/11 00:06:44;;;;;;;2.58;1.67;;;;;;;;;;5004161;28;20036;-78
2022/03/11 00:09:09;;;;;;;2.40;1.10;;;;;;;;;;5003672;28;20306;-78
2022/03/11 00:11:35;;;;;;;2.47;1.67;;;;;;;;;;4998671;28;20068;-76
2022/03/11 00:14:01;;;;;;;1.10;0.73;;;;;;;;;;4990323;28;20381;-76
2022/03/11 00:16:29;;;;;;;0.30;0.30;;;;;;;;;;4989195;28;20026;-78
2022/03/11 00:18:54;;;;;;;1.13;1.02;;;;;;;;;;4995231;28;20041;-78
2022/03/11 00:21:22;;;;;;;1.20;0.73;;;;;;;;;;5000765;28;20022;-79
2022/03/11 00:23:47;;;;;;;5.50;1.95;;;;;;;;;;4988776;28;20072;-79
2022/03/11 00:26:12;;;;;;;1.80;1.67;;;;;;;;;;4997013;28;20061;-79
2022/03/11 00:28:38;;;;;;;0.95;0.68;;;;;;;;;;4995765;28;20030;-78
2022/03/11 00:31:04;;;;;;;0.95;0.95;;;;;;;;;;4996128;28;20035;-79
2022/03/11 00:33:30;;;;;;;0.40;0.40;;;;;;;;;;4998352;28;20026;-78
2022/03/11 00:35:56;;;;;;;0.32;0.32;;;;;;;;;;5004728;28;20452;-79
2022/03/11 00:38:25;;;;;;;0.57;0.57;;;;;;;;;;4993918;28;20058;-78
2022/03/11 00:40:51;;;;;;;0.95;0.88;;;;;;;;;;4996360;28;20022;-78
2022/03/11 00:43:17;;;;;;;2.75;0.90;;;;;;;;;;4996471;28;20037;-79
2022/03/11 00:45:45;;;;;;;0.20;0.20;;;;;;;;;;4994492;28;20097;-78
2022/03/11 00:48:10;;;;;;;0.38;0.38;;;;;;;;;;4999958;28;20457;-78
2022/03/11 00:50:36;;;;;;;1.08;0.98;;;;;;;;;;4996259;28;20134;-78
2022/03/11 00:53:03;;;;;;;0.60;0.60;;;;;;;;;;4995190;28;20036;-79
2022/03/11 00:55:29;;;;;;;1.33;1.23;;;;;;;;;;4993159;28;20113;-79
2022/03/11 00:57:54;;;;;;;2.25;2.00;;;;;;;;;;5000546;28;20518;-78
2022/03/11 01:00:20;;;;;;;1.02;1.02;;;;;;;;;;4979064;28;20029;-79
2022/03/11 01:02:48;;;;;;;0.03;0.03;;;;;;;;;;4995920;28;20042;-78
2022/03/11 01:05:13;;;;;;;1.58;0.82;;;;;;;;;;4995255;28;20038;-78
2022/03/11 01:07:41;;;;;;;3.40;1.30;;;;;;;;;;4993255;28;20040;-79
2022/03/11 01:10:10;;;;;;;0.65;0.65;;;;;;;;;;4996029;28;20050;-78
2022/03/11 01:12:38;;;;;;;1.25;1.15;;;;;;;;;;4995981;28;20041;-77
2022/03/11 01:15:04;;;;;;;0.75;0.68;;;;;;;;;;4995664;28;20037;-78
2022/03/11 01:17:30;;;;;;;2.97;1.15;;;;;;;;;;4990098;28;20058;-78
2022/03/11 01:19:55;;;;;;;0.28;0.28;;;;;;;;;;4993833;28;20366;-78
2022/03/11 01:22:21;;;;;;;0.55;0.55;;;;;;;;;;5006529;28;20041;-78
2022/03/11 01:24:46;;;;;;;1.48;1.38;;;;;;;;;;4994380;28;20329;-78
2022/03/11 01:27:11;;;;;;;1.85;1.63;;;;;;;;;;4997326;28;20030;-79
2022/03/11 01:29:37;;;;;;;1.25;0.80;;;;;;;;;;4992853;28;20342;-78
2022/03/11 01:32:02;;;;;;;0.60;0.60;;;;;;;;;;4994463;28;20033;-79
2022/03/11 01:34:28;;;;;;;1.27;0.63;;;;;;;;;;4976261;28;20041;-78
2022/03/11 01:36:53;;;;;;;1.50;0.93;;;;;;;;;;4993396;28;20517;-78
2022/03/11 01:39:18;;;;;;;1.42;1.25;;;;;;;;;;4989092;28;20029;-78
2022/03/11 01:41:49;;;;;;;1.33;0.70;;;;;;;;;;4994216;28;20080;-78
2022/03/11 01:44:14;;;;;;;1.25;0.88;;;;;;;;;;4994648;28;20065;-79
2022/03/11 01:46:39;;;;;;;9.95;1.00;;;;;;;;;;4996302;28;20049;-78
2022/03/11 01:49:08;;;;;;;1.50;1.40;;;;;;;;;;4999437;28;20408;-78
2022/03/11 01:51:39;;;;;;;0.88;0.80;;;;;;;;;;4998405;28;20361;-78
2022/03/11 01:54:05;;;;;;;0.45;0.45;;;;;;;;;;5001401;28;20030;-78
2022/03/11 01:56:31;;;;;;;0.28;0.28;;;;;;;;;;4993825;28;20032;-78
2022/03/11 01:58:57;;;;;;;0.20;0.20;;;;;;;;;;4994228;28;20030;-78
2022/03/11 02:01:23;;;;;;;1.48;1.27;;;;;;;;;;4993635;28;20034;-74
2022/03/11 02:03:49;;;;;;;0.65;0.65;;;;;;;;;;4989694;28;20089;-78
2022/03/11 02:06:15;;;;;;;3.03;0.90;;;;;;;;;;4994910;28;20030;-78
2022/03/11 02:08:41;;;;;;;0.82;0.82;;;;;;;;;;4989190;28;20038;-77
2022/03/11 02:11:07;;;;;;;1.75;1.23;;;;;;;;;;4993710;28;20026;-77
2022/03/11 02:13:55;;;;;;;0.47;0.47;;;;;;;;;;4981077;28;20028;-79
2022/03/11 02:16:28;;;;;;;1.08;1.02;;;;;;;;;;4992460;28;20092;-78
2022/03/11 02:18:54;;;;;;;1.58;1.48;;;;;;;;;;4994073;28;20041;-78
2022/03/11 02:21:23;;;;;;;0.35;0.30;;;;;;;;;;4994518;28;20030;-78
2022/03/11 02:23:51;;;;;;;1.20;0.65;;;;;;;;;;4987459;28;20041;-76
2022/03/11 02:26:18;;;;;;;0.52;0.52;;;;;;;;;;4993551;28;20045;-76
2022/03/11 02:28:47;;;;;;;0.52;0.52;;;;;;;;;;4993218;28;20041;-76
2022/03/11 02:31:16;;;;;;;0.52;0.50;;;;;;;;;;4993959;28;20048;-76
2022/03/11 02:33:41;;;;;;;0.68;0.68;;;;;;;;;;4994036;28;20069;-77
2022/03/11 02:36:06;;;;;;;0.63;0.63;;;;;;;;;;4996120;28;20434;-76
2022/03/11 02:38:32;;;;;;;1.58;1.23;;;;;;;;;;4993534;28;20037;-76
2022/03/11 02:40:58;;;;;;;0.70;0.70;;;;;;;;;;4986356;28;20034;-76
2022/03/11 02:43:27;;;;;;;1.17;1.10;;;;;;;;;;4995763;28;20093;-76
2022/03/11 02:45:52;;;;;;;1.25;0.63;;;;;;;;;;4977237;28;20393;-76
2022/03/11 02:48:17;;;;;;;1.08;0.98;;;;;;;;;;4993632;28;20096;-76
2022/03/11 02:50:43;;;;;;;2.85;2.03;;;;;;;;;;4994265;28;20027;-76
2022/03/11 02:53:09;;;;;;;2.90;2.38;;;;;;;;;;4999853;28;20034;-77
2022/03/11 02:55:34;;;;;;;0.57;0.57;;;;;;;;;;4996646;28;20058;-76
2022/03/11 02:57:59;;;;;;;0.68;0.63;;;;;;;;;;4993930;28;20037;-77
2022/03/11 03:00:25;;;;;;;0.85;0.85;;;;;;;;;;4987239;28;20081;-76
2022/03/11 03:02:50;;;;;;;0.60;0.60;;;;;;;;;;4994099;28;20061;-76
2022/03/11 03:05:16;;;;;;;0.32;0.32;;;;;;;;;;4999866;28;20038;-75
2022/03/11 03:07:41;;;;;;;2.10;1.50;;;;;;;;;;4996525;28;20112;-76
2022/03/11 03:10:07;;;;;;;1.35;1.25;;;;;;;;;;4998348;28;20073;-75
2022/03/11 03:12:33;;;;;;;0.88;0.88;;;;;;;;;;4990116;28;20366;-76
2022/03/11 03:14:58;;;;;;;0.45;0.45;;;;;;;;;;4991122;28;20030;-76
2022/03/11 03:17:26;;;;;;;0.22;0.22;;;;;;;;;;4994439;28;20029;-76
2022/03/11 03:19:52;;;;;;;0.20;0.20;;;;;;;;;;4992782;28;20065;-77
2022/03/11 03:22:20;;;;;;;0.77;0.70;;;;;;;;;;4994091;28;20113;-76
2022/03/11 03:24:45;;;;;;;1.50;1.30;;;;;;;;;;4993020;28;20037;-75
2022/03/11 03:27:10;;;;;;;0.55;0.52;;;;;;;;;;4992412;28;20022;-76
2022/03/11 03:29:36;;;;;;;2.40;1.63;;;;;;;;;;4999240;28;20100;-76
2022/03/11 03:32:04;;;;;;;2.20;2.00;;;;;;;;;;4993686;28;20038;-75
2022/03/11 03:34:35;;;;;;;0.63;0.40;;;;;;;;;;4994236;28;20031;-76
2022/03/11 03:37:03;;;;;;;0.70;0.70;;;;;;;;;;4993944;28;20055;-76
2022/03/11 03:39:28;;;;;;;0.52;0.52;;;;;;;;;;4994769;28;20033;-77
2022/03/11 03:41:55;;;;;;;1.60;1.50;;;;;;;;;;4993278;28;20022;-76
2022/03/11 03:44:23;;;;;;;2.63;1.75;;;;;;;;;;4988397;28;20125;-77
2022/03/11 03:46:52;;;;;;;1.55;1.45;;;;;;;;;;4993075;28;20026;-77
2022/03/11 03:49:17;;;;;;;1.17;1.08;;;;;;;;;;4992837;28;20034;-77
2022/03/11 03:51:44;;;;;;;1.55;1.45;;;;;;;;;;4992769;28;20018;-77
2022/03/11 03:54:12;;;;;;;1.00;1.00;;;;;;;;;;4996883;28;20056;-77
2022/03/11 03:56:38;;;;;;;1.33;0.85;;;;;;;;;;4994962;28;20089;-79
2022/03/11 03:59:07;;;;;;;1.60;1.08;;;;;;;;;;4997655;28;20042;-77
2022/03/11 04:01:33;;;;;;;1.55;0.90;;;;;;;;;;4996367;28;20029;-78
2022/03/11 04:03:59;;;;;;;1.40;1.00;;;;;;;;;;4995976;28;20026;-77
2022/03/11 04:06:24;;;;;;;1.42;1.33;;;;;;;;;;4996078;28;20101;-78
2022/03/11 04:08:49;;;;;;;2.30;0.57;;;;;;;;;;4997425;28;20057;-77
2022/03/11 04:11:15;;;;;;;0.52;0.52;;;;;;;;;;4995909;28;20512;-77
2022/03/11 04:13:40;;;;;;;2.03;1.65;;;;;;;;;;4997100;28;20045;-77
2022/03/11 04:16:05;;;;;;;1.83;1.42;;;;;;;;;;4996243;28;20045;-77
2022/03/11 04:18:31;;;;;;;1.10;0.75;;;;;;;;;;5000964;28;20113;-77
2022/03/11 04:20:56;;;;;;;0.57;0.57;;;;;;;;;;4977749;28;20441;-78
2022/03/11 04:23:24;;;;;;;0.63;0.30;;;;;;;;;;4996120;28;20026;-77
2022/03/11 04:25:49;;;;;;;1.90;0.93;;;;;;;;;;4995452;28;20031;-78
2022/03/11 04:28:15;;;;;;;1.65;0.90;;;;;;;;;;4996879;28;20049;-77
2022/03/11 04:30:40;;;;;;;0.47;0.47;;;;;;;;;;4998672;28;20042;-77
2022/03/11 04:33:05;;;;;;;2.72;1.25;;;;;;;;;;4996276;28;20045;-76
2022/03/11 04:35:31;;;;;;;1.15;0.52;;;;;;;;;;4996346;28;20033;-78
2022/03/11 04:37:59;;;;;;;1.35;1.13;;;;;;;;;;4996111;28;20373;-77
2022/03/11 04:40:24;;;;;;;0.20;0.20;;;;;;;;;;4994999;28;20045;-78
2022/03/11 04:42:49;;;;;;;0.93;0.68;;;;;;;;;;4992829;28;20054;-77
2022/03/11 04:45:15;;;;;;;2.33;1.45;;;;;;;;;;4996216;28;20099;-77
2022/03/11 04:47:41;;;;;;;0.77;0.70;;;;;;;;;;4978439;28;20034;-77
2022/03/11 04:50:07;;;;;;;1.50;1.40;;;;;;;;;;4996730;28;20058;-76
2022/03/11 04:52:33;;;;;;;0.63;0.63;;;;;;;;;;4996382;28;20050;-78
2022/03/11 04:54:59;;;;;;;2.58;1.15;;;;;;;;;;4996094;28;20349;-78
2022/03/11 04:57:26;;;;;;;0.73;0.73;;;;;;;;;;4996053;28;20062;-76
2022/03/11 04:59:52;;;;;;;3.28;3.00;;;;;;;;;;4992924;28;20497;-77
2022/03/11 05:02:27;;;;;;;5.15;0.90;;;;;;;;;;5006573;28;20118;-76
2022/03/11 05:04:54;;;;;;;1.33;1.17;;;;;;;;;;4993083;28;20031;-78
2022/03/11 05:07:19;;;;;;;3.20;0.75;;;;;;;;;;4994314;28;20061;-81
2022/03/11 05:09:45;;;;;;;2.80;1.65;;;;;;;;;;4979311;28;20050;-77
2022/03/11 05:12:12;;;;;;;0.82;0.82;;;;;;;;;;4995358;28;20345;-80
2022/03/11 05:14:40;;;;;;;0.90;0.90;;;;;;;;;;4995793;28;20465;-79
2022/03/11 05:17:05;;;;;;;1.02;0.47;;;;;;;;;;4994524;28;20480;-77
2022/03/11 05:19:31;;;;;;;0.38;0.38;;;;;;;;;;4998574;28;20022;-76
2022/03/11 05:21:56;;;;;;;4.10;2.95;;;;;;;;;;4995758;28;20398;-80
2022/03/11 05:24:24;;;;;;;0.25;0.25;;;;;;;;;;4995011;28;20034;-77
2022/03/11 05:26:49;;;;;;;1.08;1.05;;;;;;;;;;4995406;28;20088;-77
2022/03/11 05:29:15;;;;;;;0.50;0.50;;;;;;;;;;4995902;28;20026;-77
2022/03/11 05:31:41;;;;;;;0.65;0.65;;;;;;;;;;4995371;28;20109;-77
2022/03/11 05:34:09;;;;;;;0.45;0.40;;;;;;;;;;4977532;28;20482;-77
2022/03/11 05:36:35;;;;;;;0.95;0.88;;;;;;;;;;4995347;28;20119;-77
2022/03/11 05:39:01;;;;;;;1.38;1.27;;;;;;;;;;5000937;28;20025;-77
2022/03/11 05:41:27;;;;;;;5.60;2.75;;;;;;;;;;4994743;28;20549;-78
2022/03/11 05:43:55;;;;;;;0.98;0.98;;;;;;;;;;4994394;28;20022;-77
2022/03/11 05:46:20;;;;;;;1.45;1.35;;;;;;;;;;4994371;28;20022;-79
2022/03/11 05:48:45;;;;;;;2.38;2.10;;;;;;;;;;4977813;28;20022;-77
2022/03/11 05:51:11;;;;;;;0.70;0.70;;;;;;;;;;5003962;28;20116;-77
2022/03/11 05:53:36;;;;;;;1.98;1.67;;;;;;;;;;5002578;28;20034;-86
2022/03/11 05:56:02;;;;;;;0.98;0.98;;;;;;;;;;4995112;28;20093;-88
2022/03/11 05:58:29;;;;;;;2.35;2.05;;;;;;;;;;4994221;28;20109;-88
2022/03/11 06:00:54;;;;;;;1.05;0.95;;;;;;;;;;4994986;28;20030;-84
2022/03/11 06:03:20;;;;;;;0.73;0.52;;;;;;;;;;4990635;28;20512;-88
2022/03/11 06:05:46;;;;;;;20.65;2.38;;;;;;;;;;4993582;28;20466;-85
2022/03/11 06:08:11;;;;;;;1.70;1.60;;;;;;;;;;4994043;28;20022;-89
2022/03/11 06:10:37;;;;;;;1.85;1.55;;;;;;;;;;4994594;28;20103;-89
2022/03/11 06:13:02;;;;;;;1.95;1.85;;;;;;;;;;4993843;28;20091;-88
2022/03/11 06:15:27;;;;;;;2.33;2.13;;;;;;;;;;4993797;28;20389;-91
2022/03/11 06:17:54;;;;;;;1.77;1.30;;;;;;;;;;4994937;28;20026;-85
2022/03/11 06:20:21;;;;;;;1.73;1.50;;;;;;;;;;5000704;28;20022;-89
2022/03/11 06:22:48;;;;;;;1.15;1.05;;;;;;;;;;4993602;28;20033;-88
2022/03/11 06:25:14;;;;;;;1.50;1.40;;;;;;;;;;4995006;28;20069;-88
2022/03/11 06:27:42;;;;;;;1.88;1.73;;;;;;;;;;4993451;28;20041;-90
2022/03/11 06:30:11;;;;;;;1.65;1.55;;;;;;;;;;4995341;28;20285;-90
2022/03/11 06:32:44;;;;;;;1.08;0.95;;;;;;;;;;4988728;28;20034;-90
2022/03/11 06:35:13;;;;;;;0.80;0.80;;;;;;;;;;4995028;28;20033;-90
2022/03/11 06:37:42;;;;;;;1.48;1.02;;;;;;;;;;4993150;28;20073;-90
2022/03/11 06:40:08;;;;;;;1.10;1.10;;;;;;;;;;4997683;28;20033;-90
2022/03/11 06:42:38;;;;;;;1.65;1.55;;;;;;;;;;5003162;28;20080;-88
2022/03/11 06:45:06;;;;;;;3.13;2.08;;;;;;;;;;5001269;28;20034;-86
2022/03/11 06:47:32;;;;;;;1.80;1.70;;;;;;;;;;5004675;28;20030;-91
2022/03/11 06:50:00;;;;;;;1.15;1.05;;;;;;;;;;5000124;28;20041;-88
2022/03/11 06:52:27;;;;;;;4.30;2.08;;;;;;;;;;4991097;28;20109;-90
2022/03/11 06:54:53;;;;;;;1.10;1.08;;;;;;;;;;4994764;28;20022;-90
2022/03/11 06:57:18;;;;;;;2.28;1.65;;;;;;;;;;4994163;28;20446;-86
2022/03/11 06:59:45;;;;;;;1.13;1.13;;;;;;;;;;4998065;28;20044;-90
2022/03/11 07:02:10;;;;;;;1.98;1.88;;;;;;;;;;4994190;28;20322;-89
2022/03/11 07:04:38;;;;;;;0.55;0.55;;;;;;;;;;4997651;28;20110;-91
2022/03/11 07:07:04;;;;;;;0.55;0.55;;;;;;;;;;4993799;28;20035;-90
2022/03/11 07:09:29;;;;;;;0.52;0.52;;;;;;;;;;4994266;28;20040;-91
2022/03/11 07:11:57;;;;;;;3.05;1.60;;;;;;;;;;4995916;28;20026;-89
2022/03/11 07:14:29;;;;;;;1.63;1.42;;;;;;;;;;4995826;28;20030;-88
2022/03/11 07:16:59;;;;;;;0.77;0.77;;;;;;;;;;4997123;28;20038;-91
2022/03/11 07:19:25;;;;;;;0.57;0.57;;;;;;;;;;4993320;28;20041;-85
2022/03/11 07:21:50;;;;;;;2.10;1.98;;;;;;;;;;4993919;28;20022;-82
2022/03/11 07:24:16;;;;;;;1.92;1.75;;;;;;;;;;4994803;28;20377;-88
2022/03/11 07:26:41;;;;;;;1.85;1.48;;;;;;;;;;4978258;28;20030;-88
2022/03/11 07:29:07;;;;;;;2.33;2.13;;;;;;;;;;4982806;28;20030;-84
2022/03/11 07:31:34;;;;;;;1.52;1.42;;;;;;;;;;4999278;28;20022;-89
2022/03/11 07:34:00;;;;;;;2.00;1.25;;;;;;;;;;5001401;28;20030;-90
2022/03/11 07:36:25;;;;;;;3.53;2.42;;;;;;;;;;4998203;28;20089;-92
2022/03/11 07:38:53;;;;;;;14.65;2.83;;;;;;;;;;5002537;28;20429;-91
2022/03/11 07:41:20;;;;;;;1.17;1.10;;;;;;;;;;4995409;28;20037;-89
2022/03/11 07:43:46;;;;;;;1.65;1.55;;;;;;;;;;5001497;28;20053;-87
2022/03/11 07:46:11;;;;;;;1.27;1.20;;;;;;;;;;4997026;28;20408;-90
2022/03/11 07:48:37;;;;;;;3.22;1.55;;;;;;;;;;4999489;28;20076;-87
2022/03/11 07:51:03;;;;;;;3.08;2.78;;;;;;;;;;4996768;28;20318;-84
2022/03/11 07:53:28;;;;;;;1.75;1.27;;;;;;;;;;4997216;28;20105;-89
2022/03/11 07:55:53;;;;;;;1.58;1.35;;;;;;;;;;5002447;28;20361;-87
2022/03/11 07:58:21;;;;;;;1.63;1.48;;;;;;;;;;4997120;28;20100;-88
2022/03/11 08:00:48;;;;;;;1.27;1.20;;;;;;;;;;4999057;28;20049;-88
2022/03/11 08:03:16;;;;;;;2.40;2.20;;;;;;;;;;5002540;28;20384;-89
2022/03/11 08:05:42;;;;;;;3.33;2.17;;;;;;;;;;4997414;28;20369;-91
2022/03/11 08:08:08;;;;;;;5.18;2.20;;;;;;;;;;5003436;28;20026;-88
2022/03/11 08:10:36;;;;;;;1.52;1.40;;;;;;;;;;4997138;28;20445;-88
2022/03/11 08:13:06;;;;;;;1.60;1.50;;;;;;;;;;5004977;28;20025;-88
2022/03/11 08:15:32;;;;;;;2.25;1.73;;;;;;;;;;4999701;28;20034;-87
2022/03/11 08:17:57;;;;;;;1.85;1.50;;;;;;;;;;4996102;28;20382;-89
2022/03/11 08:20:25;;;;;;;3.80;1.98;;;;;;;;;;4997408;28;20053;-90
2022/03/11 08:22:54;;;;;;;1.40;1.27;;;;;;;;;;5001130;28;20030;-86
2022/03/11 08:25:20;;;;;;;2.53;2.20;;;;;;;;;;4980755;28;20589;-90
2022/03/11 08:27:46;;;;;;;5.85;3.22;;;;;;;;;;4993547;28;20034;-89
2022/03/11 08:30:12;;;;;;;3.88;1.92;;;;;;;;;;4996680;28;20461;-89
2022/03/11 08:32:40;;;;;;;1.60;1.48;;;;;;;;;;4992584;28;20026;-90
2022/03/11 08:35:16;;;;;;;2.35;2.15;;;;;;;;;;4991639;28;20025;-87
2022/03/11 08:37:42;;;;;;;6.00;1.92;;;;;;;;;;4975624;28;20029;-87
2022/03/11 08:40:08;;;;;;;4.15;2.67;;;;;;;;;;5001678;28;20396;-86
2022/03/11 08:42:40;;;;;;;2.67;2.47;;;;;;;;;;5007028;28;20413;-84
2022/03/11 08:45:10;;;;;;;1.80;1.42;;;;;;;;;;5008283;28;20018;-88
2022/03/11 08:47:40;;;;;;;2.33;1.67;;;;;;;;;;5006285;28;20033;-85
2022/03/11 08:50:06;;;;;;;3.30;1.75;;;;;;;;;;5004755;28;20049;-88
2022/03/11 08:52:31;;;;;;;2.60;1.45;;;;;;;;;;4999318;28;20038;-89
2022/03/11 08:54:57;;;;;;;2.45;2.17;;;;;;;;;;5000054;28;20034;-88
2022/03/11 08:57:23;;;;;;;2.92;2.20;;;;;;;;;;5002950;28;20034;-89
2022/03/11 08:59:48;;;;;;;3.60;2.00;;;;;;;;;;5000377;28;20092;-89
2022/03/11 09:02:15;;;;;;;3.92;1.45;;;;;;;;;;4992469;28;20031;-90
2022/03/11 09:04:41;;;;;;;4.22;2.40;;;;;;;;;;4996080;28;20080;-88
2022/03/11 09:07:06;;;;;;;4.70;2.17;;;;;;;;;;4996124;28;20045;-90
2022/03/11 09:09:36;;;;;;;1.52;1.42;;;;;;;;;;4996375;28;20333;-88
2022/03/11 09:12:03;;;;;;;2.05;1.30;;;;;;;;;;4995872;28;20101;-91
2022/03/11 09:14:31;;;;;;;2.42;1.90;;;;;;;;;;4978933;28;20030;-87
2022/03/11 09:16:57;;;;;;;3.40;1.65;;;;;;;;;;5001680;28;20030;-88
2022/03/11 09:19:23;;;;;;;2.33;2.13;;;;;;;;;;4976148;28;20038;-88
2022/03/11 09:21:48;;;;;;;2.00;1.80;;;;;;;;;;4994303;28;20077;-89
2022/03/11 09:24:14;;;;;;;3.60;2.30;;;;;;;;;;4990604;28;20371;-90
2022/03/11 09:26:39;;;;;;;2.67;2.20;;;;;;;;;;4982330;28;20030;-90
2022/03/11 09:29:06;;;;;;;4.53;2.05;;;;;;;;;;4993108;28;20030;-87
2022/03/11 09:31:32;;;;;;;3.80;2.72;;;;;;;;;;4978624;28;20041;-88
2022/03/11 09:33:57;;;;;;;3.00;1.83;;;;;;;;;;4992285;28;20034;-88
2022/03/11 09:36:22;;;;;;;1.67;1.15;;;;;;;;;;4994853;28;20026;-85
2022/03/11 09:38:48;;;;;;;5.05;3.47;;;;;;;;;;4996373;28;20034;-88
2022/03/11 09:41:16;;;;;;;1.33;1.23;;;;;;;;;;4995564;28;20034;-88
2022/03/11 09:43:44;;;;;;;2.47;1.85;;;;;;;;;;4994405;28;20037;-84
2022/03/11 09:46:11;;;;;;;2.40;2.20;;;;;;;;;;4982298;28;20441;-85
2022/03/11 09:48:37;;;;;;;2.80;2.13;;;;;;;;;;4991243;28;20053;-87
2022/03/11 09:51:03;;;;;;;7.68;2.17;;;;;;;;;;4994014;28;20116;-89
2022/03/11 09:53:28;;;;;;;2.33;2.13;;;;;;;;;;4995312;28;20406;-88
2022/03/11 09:55:54;;;;;;;1.38;1.30;;;;;;;;;;4994957;28;20018;-89
2022/03/11 09:58:22;;;;;;;3.67;1.92;;;;;;;;;;4997855;28;20045;-88
2022/03/11 10:00:48;;;;;;;1.60;1.45;;;;;;;;;;4978334;28;20026;-88
2022/03/11 10:03:14;;;;;;;3.33;2.45;;;;;;;;;;4977652;28;20038;-88
2022/03/11 10:05:51;;;;;;;4.05;2.10;;;;;;;;;;4994592;28;20022;-88
2022/03/11 10:08:17;;;;;;;1.67;0.88;;;;;;;;;;4995308;28;20492;-87
2022/03/11 10:10:45;;;;;;;2.22;1.88;;;;;;;;;;4994800;28;20026;-85
2022/03/11 10:13:14;;;;;;;1.55;1.42;;;;;;;;;;4995183;28;20084;-87
2022/03/11 10:15:44;;;;;;;3.20;2.53;;;;;;;;;;4994365;28;20030;-86
2022/03/11 10:18:17;;;;;;;1.75;1.38;;;;;;;;;;4990852;28;20033;-88
2022/03/11 10:20:44;;;;;;;2.72;1.35;;;;;;;;;;5012692;28;20069;-88
2022/03/11 10:23:12;;;;;;;2.58;2.00;;;;;;;;;;4996310;28;20058;-87
2022/03/11 10:25:37;;;;;;;2.33;1.55;;;;;;;;;;4995069;28;20113;-88
2022/03/11 10:28:08;;;;;;;2.25;1.70;;;;;;;;;;5000798;28;20060;-86
2022/03/11 10:30:34;;;;;;;7.55;2.35;;;;;;;;;;4990676;28;20049;-91
2022/03/11 10:33:07;;;;;;;2.65;2.17;;;;;;;;;;5009926;28;20026;-87
2022/03/11 10:35:41;;;;;;;2.75;1.85;;;;;;;;;;4994175;28;20062;-88
2022/03/11 10:38:23;;;;;;;1.23;1.02;;;;;;;;;;4994889;28;20116;-86
2022/03/11 10:40:56;;;;;;;4.38;3.35;;;;;;;;;;4994570;28;20027;-92
2022/03/11 10:43:23;;;;;;;2.85;1.92;;;;;;;;;;4990738;28;20116;-89
2022/03/11 10:45:52;;;;;;;2.60;1.90;;;;;;;;;;4990987;28;20453;-92
2022/03/11 10:48:19;;;;;;;3.17;2.13;;;;;;;;;;4993490;28;20034;-91
2022/03/11 10:50:49;;;;;;;3.83;2.38;;;;;;;;;;4993768;28;20035;-92
2022/03/11 10:53:14;;;;;;;4.30;2.53;;;;;;;;;;4993575;28;20037;-90
2022/03/11 10:55:42;;;;;;;4.05;2.80;;;;;;;;;;4994661;28;20030;-90
2022/03/11 10:58:08;;;;;;;1.60;1.33;;;;;;;;;;4993592;28;20586;-90
2022/03/11 11:00:34;;;;;;;3.85;1.88;;;;;;;;;;4994373;28;20030;-92
2022/03/11 11:03:05;;;;;;;3.70;2.75;;;;;;;;;;4998327;28;20085;-90
2022/03/11 11:05:33;;;;;;;4.53;2.60;;;;;;;;;;4981010;28;20057;-90
2022/03/11 11:08:00;;;;;;;3.10;1.90;;;;;;;;;;4998116;28;20084;-87
2022/03/11 11:10:27;;;;;;;6.32;2.53;;;;;;;;;;4996521;28;20046;-89
2022/03/11 11:12:53;;;;;;;2.95;2.65;;;;;;;;;;4995303;28;20030;-91
2022/03/11 11:15:19;;;;;;;3.88;2.45;;;;;;;;;;4981939;28;20357;-91
2022/03/11 11:17:52;;;;;;;2.17;1.98;;;;;;;;;;4995987;28;20432;-87
2022/03/11 11:20:25;;;;;;;4.10;2.45;;;;;;;;;;4992274;28;20108;-85
2022/03/11 11:22:53;;;;;;;4.28;2.78;;;;;;;;;;4994083;28;20095;-89
2022/03/11 11:25:39;;;;;;;4.43;1.65;;;;;;;;;;4995927;28;20034;-90
2022/03/11 11:28:32;;;;;;;1.85;1.70;;;;;;;;;;4979086;28;20049;-90
2022/03/11 11:31:09;;;;;;;3.03;1.20;;;;;;;;;;4992313;28;20540;-87
2022/03/11 11:34:12;;;;;;;3.00;2.28;;;;;;;;;;4995496;28;20046;-92
2022/03/11 11:37:29;;;;;;;2.60;2.08;;;;;;;;;;4996503;28;20058;-87
2022/03/11 11:40:33;;;;;;;2.83;2.25;;;;;;;;;;5003314;28;20025;-87
2022/03/11 11:43:17;;;;;;;2.88;2.58;;;;;;;;;;4995665;28;20030;-86
2022/03/11 11:45:52;;;;;;;1.88;1.40;;;;;;;;;;4996765;28;20028;-86
2022/03/11 11:49:22;;;;;;;3.03;2.00;;;;;;;;;;4996598;28;20037;-89
2022/03/11 11:51:44;;;;;;;1.40;1.30;;;;;;;;;;4990677;28;20057;-87
2022/03/11 11:54:11;;;;;;;2.65;2.30;;;;;;;;;;4994626;28;20026;-87
2022/03/11 11:57:00;;;;;;;18.90;3.00;;;;;;;;;;4975480;28;20026;-85
2022/03/11 11:59:27;;;;;;;2.28;1.63;;;;;;;;;;4980482;28;20042;-86
2022/03/11 12:01:57;;;;;;;8.90;2.63;;;;;;;;;;4995859;28;20066;-86
2022/03/11 12:04:35;;;;;;;2.33;1.58;;;;;;;;;;4996834;28;20353;-86
2022/03/11 12:07:08;;;;;;;1.58;1.23;;;;;;;;;;4990632;28;20034;-91
2022/03/11 12:09:47;;;;;;;2.50;2.30;;;;;;;;;;4994345;28;20374;-84
2022/03/11 12:12:18;;;;;;;4.30;2.45;;;;;;;;;;4991505;28;20030;-87
2022/03/11 12:14:59;;;;;;;3.55;1.92;;;;;;;;;;4995841;28;20384;-83
2022/03/11 12:17:52;;;;;;;2.38;1.92;;;;;;;;;;4996167;28;20058;-88
2022/03/11 12:23:04;;;;;;;7.85;2.53;;;;;;;;;;4994201;28;20064;-85
2022/03/11 12:25:50;;;;;;;2.10;1.88;;;;;;;;;;4995468;28;20096;-87
2022/03/11 12:28:24;;;;;;;3.25;2.28;;;;;;;;;;5009553;28;20065;-83
2022/03/11 12:30:50;;;;;;;4.40;2.83;;;;;;;;;;4991245;28;20026;-84
2022/03/11 12:33:21;;;;;;;2.42;2.22;;;;;;;;;;4996082;28;20030;-83
2022/03/11 12:35:50;;;;;;;5.70;3.55;;;;;;;;;;4976570;28;20026;-86
2022/03/11 12:38:20;;;;;;;4.30;2.28;;;;;;;;;;4978523;28;20127;-83
2022/03/11 12:40:46;;;;;;;3.08;2.00;;;;;;;;;;4992362;28;20612;-85
2022/03/11 12:43:13;;;;;;;2.55;1.92;;;;;;;;;;4993202;28;20537;-85
2022/03/11 12:45:43;;;;;;;4.60;3.08;;;;;;;;;;4994804;28;20022;-86
2022/03/11 12:48:10;;;;;;;4.47;2.70;;;;;;;;;;4993822;28;20034;-84
2022/03/11 12:50:37;;;;;;;2.85;2.05;;;;;;;;;;4992781;28;20022;-86
2022/03/11 12:53:06;;;;;;;1.83;1.73;;;;;;;;;;4995929;28;20049;-87
2022/03/11 12:55:33;;;;;;;4.35;1.92;;;;;;;;;;4993804;28;20531;-85
2022/03/11 12:58:07;;;;;;;3.83;2.97;;;;;;;;;;4995568;28;20029;-86
2022/03/11 13:00:38;;;;;;;4.97;2.75;;;;;;;;;;4993114;28;20026;-85
2022/03/11 13:03:06;;;;;;;3.10;2.75;;;;;;;;;;5009143;28;20720;-81
2022/03/11 13:05:32;;;;;;;3.05;2.03;;;;;;;;;;4991961;28;20030;-77
2022/03/11 13:08:08;;;;;;;5.25;1.50;;;;;;;;;;4995637;28;20041;-84
2022/03/11 13:10:37;;;;;;;3.00;2.40;;;;;;;;;;4989744;28;20676;-84
2022/03/11 13:13:04;;;;;;;1.35;1.25;;;;;;;;;;4995248;28;20015;-86
2022/03/11 13:15:34;;;;;;;3.58;2.63;;;;;;;;;;4995378;28;20026;-86
2022/03/11 13:18:01;;;;;;;4.60;3.13;;;;;;;;;;4996535;28;20069;-86
2022/03/11 13:20:40;;;;;;;1.60;1.38;;;;;;;;;;4989729;28;20030;-81
2022/03/11 13:23:12;;;;;;;2.58;2.20;;;;;;;;;;4996208;28;20049;-88
2022/03/11 13:25:50;;;;;;;4.05;2.58;;;;;;;;;;4974542;28;20081;-88
2022/03/11 13:28:32;;;;;;;1.75;1.65;;;;;;;;;;4986997;28;20364;-84
2022/03/11 13:31:12;;;;;;;2.70;2.22;;;;;;;;;;4994261;28;20033;-85
2022/03/11 13:33:38;;;;;;;2.08;1.77;;;;;;;;;;4995457;28;20121;-89
2022/03/11 13:36:06;;;;;;;1.42;1.27;;;;;;;;;;4994060;28;20497;-83
2022/03/11 13:38:46;;;;;;;2.50;2.03;;;;;;;;;;4994299;28;20073;-86
2022/03/11 13:41:28;;;;;;;3.83;1.95;;;;;;;;;;4994005;28;20053;-85
2022/03/11 13:44:06;;;;;;;0.70;0.70;;;;;;;;;;4993807;28;20059;-88
2022/03/11 13:46:36;;;;;;;7.63;2.78;;;;;;;;;;4990686;28;20752;-84
2022/03/11 13:49:07;;;;;;;1.73;1.55;;;;;;;;;;4993918;28;20034;-81
2022/03/11 13:51:44;;;;;;;1.63;1.52;;;;;;;;;;4994764;28;20026;-84
2022/03/11 13:54:27;;;;;;;1.20;1.17;;;;;;;;;;4991431;28;20096;-80
2022/03/11 13:57:21;;;;;;;3.38;2.35;;;;;;;;;;5051285;28;20407;-84
2022/03/11 13:59:52;;;;;;;4.53;2.10;;;;;;;;;;5041961;28;20461;-81
2022/03/11 14:02:29;;;;;;;2.17;1.17;;;;;;;;;;5055441;28;20116;-85
2022/03/11 14:05:08;;;;;;;3.55;2.63;;;;;;;;;;5050542;28;20021;-85
2022/03/11 14:07:36;;;;;;;4.80;2.70;;;;;;;;;;5050727;28;20025;-86
2022/03/11 14:10:02;;;;;;;1.02;0.93;;;;;;;;;;5051199;28;20021;-86
2022/03/11 14:12:29;;;;;;;2.83;1.58;;;;;;;;;;5050728;28;20059;-83
2022/03/11 14:15:11;;;;;;;5.00;2.28;;;;;;;;;;5045291;28;20029;-86
2022/03/11 14:17:37;;;;;;;1.90;1.65;;;;;;;;;;5044497;28;20369;-84
2022/03/11 14:20:09;;;;;;;3.25;1.98;;;;;;;;;;5050176;28;20116;-84
2022/03/11 14:22:37;;;;;;;3.45;2.50;;;;;;;;;;5049768;28;20104;-83
2022/03/11 14:25:04;;;;;;;5.60;2.22;;;;;;;;;;5047254;28;20047;-82
2022/03/11 14:27:34;;;;;;;1.70;1.60;;;;;;;;;;5049527;28;20051;-83
2022/03/11 14:30:03;;;;;;;2.42;1.73;;;;;;;;;;5049200;28;20029;-81
2022/03/11 14:32:31;;;;;;;2.15;1.52;;;;;;;;;;5032877;28;20043;-85
2022/03/11 14:34:58;;;;;;;1.63;1.42;;;;;;;;;;5049289;28;20025;-85
2022/03/11 14:37:24;;;;;;;7.60;2.90;;;;;;;;;;5046294;28;20052;-83
2022/03/11 14:39:55;;;;;;;4.13;0.93;;;;;;;;;;5048781;28;20048;-83
2022/03/11 14:42:20;;;;;;;12.98;2.05;;;;;;;;;;5050236;28;20454;-85
2022/03/11 14:44:48;;;;;;;1.58;1.42;;;;;;;;;;5047340;28;20055;-86
2022/03/11 14:47:14;;;;;;;6.32;2.63;;;;;;;;;;5049715;28;20443;-84
2022/03/11 14:49:47;;;;;;;1.95;1.75;;;;;;;;;;5047717;28;20025;-84
2022/03/11 14:52:13;;;;;;;2.58;1.70;;;;;;;;;;5046989;28;20511;-86
2022/03/11 14:54:40;;;;;;;2.60;2.00;;;;;;;;;;5045985;28;20017;-84